sensor_id;sensor_type;location;lat;lon;timestamp;P1;durP1;ratioP1;P2;durP2;ratioP2
49828;SDS011;35723;51.194;5.112;2023-05-07T00:01:56;14.77;;;6.90;;
49828;SDS011;35723;51.194;5.112;2023-05-07T00:04:22;14.18;;;7.05;;
49828;SDS011;35723;51.194;5.112;2023-05-07T00:06:47;14.70;;;8.18;;
49828;SDS011;35723;51.194;5.112;2023-05-07T00:09:13;17.77;;;8.20;;
49828;SDS011;35723;51.194;5.112;2023-05-07T00:11:39;17.08;;;7.78;;
49828;SDS011;35723;51.194;5.112;2023-05-07T00:14:04;15.38;;;8.05;;
49828;SDS011;35723;51.194;5.112;2023-05-07T00:16:30;14.10;;;7.40;;
49828;SDS011;35723;51.194;5.112;2023-05-07T00:18:56;16.23;;;7.95;;
49828;SDS011;35723;51.194;5.112;2023-05-07T00:21:21;16.83;;;7.70;;
49828;SDS011;35723;51.194;5.112;2023-05-07T00:23:47;13.55;;;7.57;;
49828;SDS011;35723;51.194;5.112;2023-05-07T00:26:13;15.93;;;7.70;;
49828;SDS011;35723;51.194;5.112;2023-05-07T00:28:38;18.95;;;8.20;;
49828;SDS011;35723;51.194;5.112;2023-05-07T00:31:04;15.85;;;7.60;;
49828;SDS011;35723;51.194;5.112;2023-05-07T00:33:30;14.05;;;7.45;;
49828;SDS011;35723;51.194;5.112;2023-05-07T00:35:55;17.73;;;8.20;;
49828;SDS011;35723;51.194;5.112;2023-05-07T00:38:21;15.93;;;8.18;;
49828;SDS011;35723;51.194;5.112;2023-05-07T00:40:46;15.75;;;8.02;;
49828;SDS011;35723;51.194;5.112;2023-05-07T00:43:12;16.35;;;7.90;;
49828;SDS011;35723;51.194;5.112;2023-05-07T00:45:38;14.68;;;7.85;;
49828;SDS011;35723;51.194;5.112;2023-05-07T00:48:04;14.95;;;7.82;;
49828;SDS011;35723;51.194;5.112;2023-05-07T00:50:30;17.63;;;7.90;;
49828;SDS011;35723;51.194;5.112;2023-05-07T00:52:57;16.10;;;7.70;;
49828;SDS011;35723;51.194;5.112;2023-05-07T00:55:24;16.15;;;7.97;;
49828;SDS011;35723;51.194;5.112;2023-05-07T00:57:50;14.02;;;7.70;;
49828;SDS011;35723;51.194;5.112;2023-05-07T01:00:16;14.85;;;7.80;;
49828;SDS011;35723;51.194;5.112;2023-05-07T01:02:43;16.30;;;8.30;;
49828;SDS011;35723;51.194;5.112;2023-05-07T01:05:10;13.80;;;7.43;;
49828;SDS011;35723;51.194;5.112;2023-05-07T01:07:39;16.35;;;7.82;;
49828;SDS011;35723;51.194;5.112;2023-05-07T01:10:07;14.80;;;7.90;;
49828;SDS011;35723;51.194;5.112;2023-05-07T01:12:34;16.02;;;7.47;;
49828;SDS011;35723;51.194;5.112;2023-05-07T01:15:02;12.68;;;7.03;;
49828;SDS011;35723;51.194;5.112;2023-05-07T01:17:28;14.90;;;7.00;;
49828;SDS011;35723;51.194;5.112;2023-05-07T01:19:54;14.60;;;7.57;;
49828;SDS011;35723;51.194;5.112;2023-05-07T01:22:28;15.57;;;7.13;;
49828;SDS011;35723;51.194;5.112;2023-05-07T01:24:58;13.32;;;7.43;;
49828;SDS011;35723;51.194;5.112;2023-05-07T01:27:24;14.25;;;7.10;;
49828;SDS011;35723;51.194;5.112;2023-05-07T01:29:50;12.70;;;6.40;;
49828;SDS011;35723;51.194;5.112;2023-05-07T01:32:16;14.90;;;6.93;;
49828;SDS011;35723;51.194;5.112;2023-05-07T01:34:45;14.02;;;6.90;;
49828;SDS011;35723;51.194;5.112;2023-05-07T01:37:13;15.23;;;6.97;;
49828;SDS011;35723;51.194;5.112;2023-05-07T01:39:39;16.38;;;7.10;;
49828;SDS011;35723;51.194;5.112;2023-05-07T01:42:05;13.60;;;7.00;;
49828;SDS011;35723;51.194;5.112;2023-05-07T01:44:31;11.70;;;6.63;;
49828;SDS011;35723;51.194;5.112;2023-05-07T01:46:57;13.45;;;6.90;;
49828;SDS011;35723;51.194;5.112;2023-05-07T01:49:24;16.02;;;7.32;;
49828;SDS011;35723;51.194;5.112;2023-05-07T01:51:50;18.02;;;7.25;;
49828;SDS011;35723;51.194;5.112;2023-05-07T01:54:16;13.60;;;6.93;;
49828;SDS011;35723;51.194;5.112;2023-05-07T01:56:42;15.05;;;6.50;;
49828;SDS011;35723;51.194;5.112;2023-05-07T01:59:07;12.70;;;6.75;;
49828;SDS011;35723;51.194;5.112;2023-05-07T02:01:34;16.00;;;6.82;;
49828;SDS011;35723;51.194;5.112;2023-05-07T02:03:59;15.05;;;6.72;;
49828;SDS011;35723;51.194;5.112;2023-05-07T02:06:25;15.95;;;7.28;;
49828;SDS011;35723;51.194;5.112;2023-05-07T02:08:51;15.65;;;7.15;;
49828;SDS011;35723;51.194;5.112;2023-05-07T02:11:16;19.15;;;7.10;;
49828;SDS011;35723;51.194;5.112;2023-05-07T02:13:42;19.05;;;7.50;;
49828;SDS011;35723;51.194;5.112;2023-05-07T02:16:07;18.08;;;7.18;;
49828;SDS011;35723;51.194;5.112;2023-05-07T02:18:33;15.10;;;7.18;;
49828;SDS011;35723;51.194;5.112;2023-05-07T02:20:59;14.07;;;6.68;;
49828;SDS011;35723;51.194;5.112;2023-05-07T02:23:24;16.05;;;6.95;;
49828;SDS011;35723;51.194;5.112;2023-05-07T02:25:50;14.40;;;7.32;;
49828;SDS011;35723;51.194;5.112;2023-05-07T02:28:16;15.65;;;7.50;;
49828;SDS011;35723;51.194;5.112;2023-05-07T02:30:42;14.57;;;7.28;;
49828;SDS011;35723;51.194;5.112;2023-05-07T02:33:07;12.85;;;7.10;;
49828;SDS011;35723;51.194;5.112;2023-05-07T02:35:33;16.33;;;7.65;;
49828;SDS011;35723;51.194;5.112;2023-05-07T02:37:59;14.77;;;7.80;;
49828;SDS011;35723;51.194;5.112;2023-05-07T02:40:25;16.23;;;7.97;;
49828;SDS011;35723;51.194;5.112;2023-05-07T02:42:50;15.75;;;7.45;;
49828;SDS011;35723;51.194;5.112;2023-05-07T02:45:16;14.80;;;7.85;;
49828;SDS011;35723;51.194;5.112;2023-05-07T02:47:42;14.30;;;7.93;;
49828;SDS011;35723;51.194;5.112;2023-05-07T02:50:07;16.23;;;7.60;;
49828;SDS011;35723;51.194;5.112;2023-05-07T02:52:33;17.35;;;8.20;;
49828;SDS011;35723;51.194;5.112;2023-05-07T02:54:58;15.65;;;8.00;;
49828;SDS011;35723;51.194;5.112;2023-05-07T02:57:24;17.05;;;7.93;;
49828;SDS011;35723;51.194;5.112;2023-05-07T02:59:50;16.58;;;7.68;;
49828;SDS011;35723;51.194;5.112;2023-05-07T03:02:15;13.90;;;7.78;;
49828;SDS011;35723;51.194;5.112;2023-05-07T03:04:41;14.55;;;7.72;;
49828;SDS011;35723;51.194;5.112;2023-05-07T03:07:07;14.88;;;7.28;;
49828;SDS011;35723;51.194;5.112;2023-05-07T03:09:32;16.50;;;7.93;;
49828;SDS011;35723;51.194;5.112;2023-05-07T03:11:58;16.05;;;7.85;;
49828;SDS011;35723;51.194;5.112;2023-05-07T03:14:24;16.63;;;7.93;;
49828;SDS011;35723;51.194;5.112;2023-05-07T03:16:50;14.68;;;7.72;;
49828;SDS011;35723;51.194;5.112;2023-05-07T03:19:15;15.35;;;8.05;;
49828;SDS011;35723;51.194;5.112;2023-05-07T03:21:41;15.85;;;8.10;;
49828;SDS011;35723;51.194;5.112;2023-05-07T03:24:07;17.48;;;8.32;;
49828;SDS011;35723;51.194;5.112;2023-05-07T03:26:33;17.17;;;8.85;;
49828;SDS011;35723;51.194;5.112;2023-05-07T03:28:58;17.52;;;7.70;;
49828;SDS011;35723;51.194;5.112;2023-05-07T03:31:24;17.88;;;8.50;;
49828;SDS011;35723;51.194;5.112;2023-05-07T03:33:50;16.05;;;8.18;;
49828;SDS011;35723;51.194;5.112;2023-05-07T03:36:17;15.35;;;8.35;;
49828;SDS011;35723;51.194;5.112;2023-05-07T03:38:43;16.92;;;8.13;;
49828;SDS011;35723;51.194;5.112;2023-05-07T03:41:09;14.68;;;8.05;;
49828;SDS011;35723;51.194;5.112;2023-05-07T03:43:35;14.88;;;8.13;;
49828;SDS011;35723;51.194;5.112;2023-05-07T03:46:00;21.10;;;8.30;;
49828;SDS011;35723;51.194;5.112;2023-05-07T03:48:26;18.70;;;8.85;;
49828;SDS011;35723;51.194;5.112;2023-05-07T03:50:52;18.83;;;9.18;;
49828;SDS011;35723;51.194;5.112;2023-05-07T03:53:17;15.88;;;8.25;;
49828;SDS011;35723;51.194;5.112;2023-05-07T03:55:43;17.35;;;8.80;;
49828;SDS011;35723;51.194;5.112;2023-05-07T03:58:09;17.42;;;8.65;;
49828;SDS011;35723;51.194;5.112;2023-05-07T04:00:34;17.42;;;8.60;;
49828;SDS011;35723;51.194;5.112;2023-05-07T04:03:04;19.63;;;9.35;;
49828;SDS011;35723;51.194;5.112;2023-05-07T04:05:30;17.70;;;9.05;;
49828;SDS011;35723;51.194;5.112;2023-05-07T04:08:00;16.55;;;8.95;;
49828;SDS011;35723;51.194;5.112;2023-05-07T04:10:27;18.90;;;8.98;;
49828;SDS011;35723;51.194;5.112;2023-05-07T04:12:54;18.67;;;9.27;;
49828;SDS011;35723;51.194;5.112;2023-05-07T04:15:19;20.38;;;9.45;;
49828;SDS011;35723;51.194;5.112;2023-05-07T04:17:45;19.13;;;9.02;;
49828;SDS011;35723;51.194;5.112;2023-05-07T04:20:13;20.80;;;9.15;;
49828;SDS011;35723;51.194;5.112;2023-05-07T04:22:41;19.92;;;9.88;;
49828;SDS011;35723;51.194;5.112;2023-05-07T04:25:07;18.08;;;9.48;;
49828;SDS011;35723;51.194;5.112;2023-05-07T04:27:36;21.10;;;9.73;;
49828;SDS011;35723;51.194;5.112;2023-05-07T04:30:02;18.83;;;8.98;;
49828;SDS011;35723;51.194;5.112;2023-05-07T04:32:29;19.05;;;9.18;;
49828;SDS011;35723;51.194;5.112;2023-05-07T04:34:55;20.73;;;9.77;;
49828;SDS011;35723;51.194;5.112;2023-05-07T04:37:21;19.13;;;9.77;;
49828;SDS011;35723;51.194;5.112;2023-05-07T04:39:47;19.55;;;10.02;;
49828;SDS011;35723;51.194;5.112;2023-05-07T04:42:16;18.83;;;9.18;;
49828;SDS011;35723;51.194;5.112;2023-05-07T04:44:43;17.75;;;9.80;;
49828;SDS011;35723;51.194;5.112;2023-05-07T04:47:10;20.20;;;9.88;;
49828;SDS011;35723;51.194;5.112;2023-05-07T04:49:36;18.95;;;9.50;;
49828;SDS011;35723;51.194;5.112;2023-05-07T04:52:03;23.35;;;9.73;;
49828;SDS011;35723;51.194;5.112;2023-05-07T04:54:29;20.30;;;10.30;;
49828;SDS011;35723;51.194;5.112;2023-05-07T04:56:55;19.35;;;10.00;;
49828;SDS011;35723;51.194;5.112;2023-05-07T04:59:20;19.40;;;10.40;;
49828;SDS011;35723;51.194;5.112;2023-05-07T05:01:46;18.88;;;9.45;;
49828;SDS011;35723;51.194;5.112;2023-05-07T05:04:12;18.67;;;9.90;;
49828;SDS011;35723;51.194;5.112;2023-05-07T05:06:38;21.50;;;10.30;;
49828;SDS011;35723;51.194;5.112;2023-05-07T05:09:04;19.52;;;10.02;;
49828;SDS011;35723;51.194;5.112;2023-05-07T05:11:30;20.02;;;9.90;;
49828;SDS011;35723;51.194;5.112;2023-05-07T05:13:56;22.90;;;9.77;;
49828;SDS011;35723;51.194;5.112;2023-05-07T05:16:21;19.10;;;9.90;;
49828;SDS011;35723;51.194;5.112;2023-05-07T05:18:47;21.27;;;10.38;;
49828;SDS011;35723;51.194;5.112;2023-05-07T05:21:13;20.23;;;9.55;;
49828;SDS011;35723;51.194;5.112;2023-05-07T05:23:38;19.88;;;9.93;;
49828;SDS011;35723;51.194;5.112;2023-05-07T05:26:04;19.73;;;10.32;;
49828;SDS011;35723;51.194;5.112;2023-05-07T05:28:30;20.75;;;9.80;;
49828;SDS011;35723;51.194;5.112;2023-05-07T05:30:55;25.08;;;9.80;;
49828;SDS011;35723;51.194;5.112;2023-05-07T05:33:21;27.05;;;10.80;;
49828;SDS011;35723;51.194;5.112;2023-05-07T05:35:47;21.05;;;10.05;;
49828;SDS011;35723;51.194;5.112;2023-05-07T05:38:13;20.17;;;9.77;;
49828;SDS011;35723;51.194;5.112;2023-05-07T05:40:38;18.98;;;9.70;;
49828;SDS011;35723;51.194;5.112;2023-05-07T05:43:05;19.77;;;9.45;;
49828;SDS011;35723;51.194;5.112;2023-05-07T05:45:31;18.50;;;9.57;;
49828;SDS011;35723;51.194;5.112;2023-05-07T05:47:56;20.95;;;9.60;;
49828;SDS011;35723;51.194;5.112;2023-05-07T05:50:22;20.35;;;9.55;;
49828;SDS011;35723;51.194;5.112;2023-05-07T05:52:48;19.95;;;9.77;;
49828;SDS011;35723;51.194;5.112;2023-05-07T05:55:14;20.27;;;9.30;;
49828;SDS011;35723;51.194;5.112;2023-05-07T05:57:39;18.85;;;9.38;;
49828;SDS011;35723;51.194;5.112;2023-05-07T06:00:06;21.77;;;10.13;;
49828;SDS011;35723;51.194;5.112;2023-05-07T06:02:33;22.13;;;9.75;;
49828;SDS011;35723;51.194;5.112;2023-05-07T06:04:58;19.70;;;9.98;;
49828;SDS011;35723;51.194;5.112;2023-05-07T06:07:24;19.52;;;9.82;;
49828;SDS011;35723;51.194;5.112;2023-05-07T06:09:50;21.27;;;9.65;;
49828;SDS011;35723;51.194;5.112;2023-05-07T06:12:15;18.23;;;8.73;;
49828;SDS011;35723;51.194;5.112;2023-05-07T06:14:44;22.27;;;9.77;;
49828;SDS011;35723;51.194;5.112;2023-05-07T06:17:10;20.95;;;9.85;;
49828;SDS011;35723;51.194;5.112;2023-05-07T06:19:35;19.05;;;9.95;;
49828;SDS011;35723;51.194;5.112;2023-05-07T06:22:01;21.25;;;10.25;;
49828;SDS011;35723;51.194;5.112;2023-05-07T06:24:27;19.38;;;10.38;;
49828;SDS011;35723;51.194;5.112;2023-05-07T06:26:53;20.83;;;11.02;;
49828;SDS011;35723;51.194;5.112;2023-05-07T06:29:19;19.80;;;9.88;;
49828;SDS011;35723;51.194;5.112;2023-05-07T06:31:44;20.67;;;10.18;;
49828;SDS011;35723;51.194;5.112;2023-05-07T06:34:10;21.40;;;10.57;;
49828;SDS011;35723;51.194;5.112;2023-05-07T06:36:39;20.10;;;10.30;;
49828;SDS011;35723;51.194;5.112;2023-05-07T06:39:05;19.55;;;10.18;;
49828;SDS011;35723;51.194;5.112;2023-05-07T06:41:31;23.25;;;10.85;;
49828;SDS011;35723;51.194;5.112;2023-05-07T06:43:56;18.00;;;9.73;;
49828;SDS011;35723;51.194;5.112;2023-05-07T06:46:22;20.60;;;10.10;;
49828;SDS011;35723;51.194;5.112;2023-05-07T06:48:48;24.23;;;10.77;;
49828;SDS011;35723;51.194;5.112;2023-05-07T06:51:13;18.92;;;10.07;;
49828;SDS011;35723;51.194;5.112;2023-05-07T06:53:39;20.45;;;10.25;;
49828;SDS011;35723;51.194;5.112;2023-05-07T06:56:05;19.75;;;10.38;;
49828;SDS011;35723;51.194;5.112;2023-05-07T06:58:31;19.75;;;9.77;;
49828;SDS011;35723;51.194;5.112;2023-05-07T07:00:57;20.45;;;9.73;;
49828;SDS011;35723;51.194;5.112;2023-05-07T07:03:22;20.73;;;9.88;;
49828;SDS011;35723;51.194;5.112;2023-05-07T07:05:51;19.25;;;9.80;;
49828;SDS011;35723;51.194;5.112;2023-05-07T07:08:18;19.23;;;8.35;;
49828;SDS011;35723;51.194;5.112;2023-05-07T07:10:46;18.35;;;9.35;;
49828;SDS011;35723;51.194;5.112;2023-05-07T07:13:12;19.55;;;9.50;;
49828;SDS011;35723;51.194;5.112;2023-05-07T07:15:38;19.08;;;9.88;;
49828;SDS011;35723;51.194;5.112;2023-05-07T07:18:04;18.20;;;9.25;;
49828;SDS011;35723;51.194;5.112;2023-05-07T07:20:29;18.33;;;9.40;;
49828;SDS011;35723;51.194;5.112;2023-05-07T07:22:55;18.67;;;9.00;;
49828;SDS011;35723;51.194;5.112;2023-05-07T07:25:21;20.80;;;9.45;;
49828;SDS011;35723;51.194;5.112;2023-05-07T07:27:46;21.35;;;9.85;;
49828;SDS011;35723;51.194;5.112;2023-05-07T07:30:12;20.90;;;10.00;;
49828;SDS011;35723;51.194;5.112;2023-05-07T07:32:38;20.63;;;9.65;;
49828;SDS011;35723;51.194;5.112;2023-05-07T07:35:03;17.73;;;9.30;;
49828;SDS011;35723;51.194;5.112;2023-05-07T07:37:30;18.90;;;9.52;;
49828;SDS011;35723;51.194;5.112;2023-05-07T07:39:55;19.65;;;9.43;;
49828;SDS011;35723;51.194;5.112;2023-05-07T07:42:21;18.50;;;8.93;;
49828;SDS011;35723;51.194;5.112;2023-05-07T07:44:46;18.95;;;9.43;;
49828;SDS011;35723;51.194;5.112;2023-05-07T07:47:13;20.27;;;9.82;;
49828;SDS011;35723;51.194;5.112;2023-05-07T07:49:39;19.73;;;9.95;;
49828;SDS011;35723;51.194;5.112;2023-05-07T07:52:04;21.15;;;10.48;;
49828;SDS011;35723;51.194;5.112;2023-05-07T07:54:30;20.67;;;9.45;;
49828;SDS011;35723;51.194;5.112;2023-05-07T07:56:56;18.88;;;9.90;;
49828;SDS011;35723;51.194;5.112;2023-05-07T07:59:21;18.70;;;10.00;;
49828;SDS011;35723;51.194;5.112;2023-05-07T08:01:47;19.83;;;9.93;;
49828;SDS011;35723;51.194;5.112;2023-05-07T08:04:15;22.95;;;10.40;;
49828;SDS011;35723;51.194;5.112;2023-05-07T08:06:40;17.77;;;9.63;;
49828;SDS011;35723;51.194;5.112;2023-05-07T08:09:07;21.60;;;11.30;;
49828;SDS011;35723;51.194;5.112;2023-05-07T08:11:33;19.80;;;11.13;;
49828;SDS011;35723;51.194;5.112;2023-05-07T08:13:59;21.48;;;10.60;;
49828;SDS011;35723;51.194;5.112;2023-05-07T08:16:25;20.98;;;10.80;;
49828;SDS011;35723;51.194;5.112;2023-05-07T08:18:50;24.38;;;12.45;;
49828;SDS011;35723;51.194;5.112;2023-05-07T08:21:16;25.65;;;13.02;;
49828;SDS011;35723;51.194;5.112;2023-05-07T08:23:42;23.73;;;11.90;;
49828;SDS011;35723;51.194;5.112;2023-05-07T08:26:08;24.77;;;12.95;;
49828;SDS011;35723;51.194;5.112;2023-05-07T08:28:34;23.38;;;12.95;;
49828;SDS011;35723;51.194;5.112;2023-05-07T08:31:00;24.45;;;13.18;;
49828;SDS011;35723;51.194;5.112;2023-05-07T08:33:26;26.17;;;11.82;;
49828;SDS011;35723;51.194;5.112;2023-05-07T08:35:51;21.00;;;11.05;;
49828;SDS011;35723;51.194;5.112;2023-05-07T08:38:17;20.35;;;11.48;;
49828;SDS011;35723;51.194;5.112;2023-05-07T08:40:43;24.10;;;11.77;;
49828;SDS011;35723;51.194;5.112;2023-05-07T08:43:09;22.25;;;10.88;;
49828;SDS011;35723;51.194;5.112;2023-05-07T08:45:39;20.85;;;11.55;;
49828;SDS011;35723;51.194;5.112;2023-05-07T08:48:08;21.90;;;11.85;;
49828;SDS011;35723;51.194;5.112;2023-05-07T08:50:39;18.63;;;10.80;;
49828;SDS011;35723;51.194;5.112;2023-05-07T08:53:04;19.55;;;10.98;;
49828;SDS011;35723;51.194;5.112;2023-05-07T08:55:30;22.27;;;11.50;;
49828;SDS011;35723;51.194;5.112;2023-05-07T08:57:58;19.02;;;11.32;;
49828;SDS011;35723;51.194;5.112;2023-05-07T09:00:24;22.60;;;10.40;;
49828;SDS011;35723;51.194;5.112;2023-05-07T09:02:50;21.08;;;11.35;;
49828;SDS011;35723;51.194;5.112;2023-05-07T09:05:17;19.70;;;10.80;;
49828;SDS011;35723;51.194;5.112;2023-05-07T09:07:42;20.35;;;10.15;;
49828;SDS011;35723;51.194;5.112;2023-05-07T09:10:08;18.83;;;10.13;;
49828;SDS011;35723;51.194;5.112;2023-05-07T09:12:34;20.05;;;10.18;;
49828;SDS011;35723;51.194;5.112;2023-05-07T09:15:01;18.83;;;10.00;;
49828;SDS011;35723;51.194;5.112;2023-05-07T09:17:28;19.30;;;9.68;;
49828;SDS011;35723;51.194;5.112;2023-05-07T09:19:54;19.77;;;10.10;;
49828;SDS011;35723;51.194;5.112;2023-05-07T09:22:20;20.25;;;9.50;;
49828;SDS011;35723;51.194;5.112;2023-05-07T09:24:49;19.83;;;9.80;;
49828;SDS011;35723;51.194;5.112;2023-05-07T09:27:15;20.73;;;9.98;;
49828;SDS011;35723;51.194;5.112;2023-05-07T09:29:41;21.65;;;10.20;;
49828;SDS011;35723;51.194;5.112;2023-05-07T09:32:08;20.40;;;10.07;;
49828;SDS011;35723;51.194;5.112;2023-05-07T09:34:34;19.23;;;10.65;;
49828;SDS011;35723;51.194;5.112;2023-05-07T09:37:02;20.17;;;10.05;;
49828;SDS011;35723;51.194;5.112;2023-05-07T09:39:38;16.58;;;9.60;;
49828;SDS011;35723;51.194;5.112;2023-05-07T09:42:05;17.60;;;9.43;;
49828;SDS011;35723;51.194;5.112;2023-05-07T09:44:31;20.50;;;9.90;;
49828;SDS011;35723;51.194;5.112;2023-05-07T09:46:58;23.10;;;10.00;;
49828;SDS011;35723;51.194;5.112;2023-05-07T09:49:25;16.92;;;9.10;;
49828;SDS011;35723;51.194;5.112;2023-05-07T09:51:55;18.60;;;9.80;;
49828;SDS011;35723;51.194;5.112;2023-05-07T09:54:24;17.35;;;8.40;;
49828;SDS011;35723;51.194;5.112;2023-05-07T09:56:51;18.60;;;9.40;;
49828;SDS011;35723;51.194;5.112;2023-05-07T09:59:18;19.05;;;10.60;;
49828;SDS011;35723;51.194;5.112;2023-05-07T10:01:45;21.27;;;10.18;;
49828;SDS011;35723;51.194;5.112;2023-05-07T10:04:11;19.88;;;10.60;;
49828;SDS011;35723;51.194;5.112;2023-05-07T10:06:37;21.33;;;10.57;;
49828;SDS011;35723;51.194;5.112;2023-05-07T10:09:03;20.02;;;10.23;;
49828;SDS011;35723;51.194;5.112;2023-05-07T10:11:36;20.45;;;11.32;;
49828;SDS011;35723;51.194;5.112;2023-05-07T10:14:02;20.70;;;11.38;;
49828;SDS011;35723;51.194;5.112;2023-05-07T10:16:32;24.45;;;12.20;;
49828;SDS011;35723;51.194;5.112;2023-05-07T10:19:05;22.88;;;11.15;;
49828;SDS011;35723;51.194;5.112;2023-05-07T10:21:33;20.98;;;12.30;;
49828;SDS011;35723;51.194;5.112;2023-05-07T10:24:05;19.60;;;12.07;;
49828;SDS011;35723;51.194;5.112;2023-05-07T10:26:39;19.77;;;11.98;;
49828;SDS011;35723;51.194;5.112;2023-05-07T10:29:12;20.27;;;11.65;;
49828;SDS011;35723;51.194;5.112;2023-05-07T10:34:53;21.10;;;11.48;;
49828;SDS011;35723;51.194;5.112;2023-05-07T10:37:21;20.23;;;11.15;;
49828;SDS011;35723;51.194;5.112;2023-05-07T10:39:47;20.38;;;12.18;;
49828;SDS011;35723;51.194;5.112;2023-05-07T10:42:13;20.25;;;12.27;;
49828;SDS011;35723;51.194;5.112;2023-05-07T10:44:40;21.45;;;12.23;;
49828;SDS011;35723;51.194;5.112;2023-05-07T10:47:12;22.17;;;12.73;;
49828;SDS011;35723;51.194;5.112;2023-05-07T10:52:10;23.27;;;13.15;;
49828;SDS011;35723;51.194;5.112;2023-05-07T10:54:43;23.65;;;12.75;;
49828;SDS011;35723;51.194;5.112;2023-05-07T11:00:02;23.58;;;13.57;;
49828;SDS011;35723;51.194;5.112;2023-05-07T11:05:26;24.60;;;14.20;;
49828;SDS011;35723;51.194;5.112;2023-05-07T11:07:55;23.05;;;13.45;;
49828;SDS011;35723;51.194;5.112;2023-05-07T11:10:21;24.63;;;13.95;;
49828;SDS011;35723;51.194;5.112;2023-05-07T11:12:50;23.42;;;12.82;;
49828;SDS011;35723;51.194;5.112;2023-05-07T11:15:35;23.65;;;13.68;;
49828;SDS011;35723;51.194;5.112;2023-05-07T11:18:03;24.70;;;13.20;;
49828;SDS011;35723;51.194;5.112;2023-05-07T11:26:12;22.08;;;12.15;;
49828;SDS011;35723;51.194;5.112;2023-05-07T11:28:42;21.80;;;11.80;;
49828;SDS011;35723;51.194;5.112;2023-05-07T11:31:08;23.42;;;12.40;;
49828;SDS011;35723;51.194;5.112;2023-05-07T11:33:35;20.85;;;11.57;;
49828;SDS011;35723;51.194;5.112;2023-05-07T11:36:02;22.63;;;11.32;;
49828;SDS011;35723;51.194;5.112;2023-05-07T11:38:35;22.90;;;12.00;;
49828;SDS011;35723;51.194;5.112;2023-05-07T11:41:02;23.55;;;12.48;;
49828;SDS011;35723;51.194;5.112;2023-05-07T11:43:29;21.90;;;13.02;;
49828;SDS011;35723;51.194;5.112;2023-05-07T11:46:04;22.35;;;12.50;;
49828;SDS011;35723;51.194;5.112;2023-05-07T11:48:32;24.48;;;13.82;;
49828;SDS011;35723;51.194;5.112;2023-05-07T11:53:27;22.75;;;12.07;;
49828;SDS011;35723;51.194;5.112;2023-05-07T11:56:00;23.77;;;12.95;;
49828;SDS011;35723;51.194;5.112;2023-05-07T11:58:34;21.88;;;13.02;;
49828;SDS011;35723;51.194;5.112;2023-05-07T12:01:00;21.13;;;11.95;;
49828;SDS011;35723;51.194;5.112;2023-05-07T12:03:26;23.38;;;12.90;;
49828;SDS011;35723;51.194;5.112;2023-05-07T12:05:51;23.00;;;13.20;;
49828;SDS011;35723;51.194;5.112;2023-05-07T12:08:17;23.70;;;13.65;;
49828;SDS011;35723;51.194;5.112;2023-05-07T12:10:44;24.45;;;13.25;;
49828;SDS011;35723;51.194;5.112;2023-05-07T12:13:19;25.02;;;13.10;;
49828;SDS011;35723;51.194;5.112;2023-05-07T12:15:46;27.15;;;13.40;;
49828;SDS011;35723;51.194;5.112;2023-05-07T12:18:19;23.42;;;12.13;;
49828;SDS011;35723;51.194;5.112;2023-05-07T12:20:46;22.33;;;12.07;;
49828;SDS011;35723;51.194;5.112;2023-05-07T12:23:12;21.00;;;11.10;;
49828;SDS011;35723;51.194;5.112;2023-05-07T12:25:38;20.83;;;10.23;;
49828;SDS011;35723;51.194;5.112;2023-05-07T12:28:07;22.33;;;10.10;;
49828;SDS011;35723;51.194;5.112;2023-05-07T12:30:39;22.20;;;10.52;;
49828;SDS011;35723;51.194;5.112;2023-05-07T12:33:05;20.70;;;10.60;;
49828;SDS011;35723;51.194;5.112;2023-05-07T12:35:37;22.17;;;10.80;;
49828;SDS011;35723;51.194;5.112;2023-05-07T12:38:24;21.75;;;10.40;;
49828;SDS011;35723;51.194;5.112;2023-05-07T12:40:50;22.83;;;10.20;;
49828;SDS011;35723;51.194;5.112;2023-05-07T12:45:49;21.08;;;10.27;;
49828;SDS011;35723;51.194;5.112;2023-05-07T12:48:15;20.67;;;9.50;;
49828;SDS011;35723;51.194;5.112;2023-05-07T12:50:41;24.08;;;10.60;;
49828;SDS011;35723;51.194;5.112;2023-05-07T12:53:08;20.10;;;9.73;;
49828;SDS011;35723;51.194;5.112;2023-05-07T12:55:49;20.08;;;9.35;;
49828;SDS011;35723;51.194;5.112;2023-05-07T12:58:19;17.77;;;7.78;;
49828;SDS011;35723;51.194;5.112;2023-05-07T13:00:49;20.73;;;7.72;;
49828;SDS011;35723;51.194;5.112;2023-05-07T13:03:26;19.85;;;7.60;;
49828;SDS011;35723;51.194;5.112;2023-05-07T13:05:57;18.50;;;7.80;;
49828;SDS011;35723;51.194;5.112;2023-05-07T13:08:34;19.55;;;8.13;;
49828;SDS011;35723;51.194;5.112;2023-05-07T13:11:10;19.00;;;8.82;;
49828;SDS011;35723;51.194;5.112;2023-05-07T13:13:36;21.05;;;8.82;;
49828;SDS011;35723;51.194;5.112;2023-05-07T13:16:04;20.20;;;9.25;;
49828;SDS011;35723;51.194;5.112;2023-05-07T13:18:31;18.20;;;8.43;;
49828;SDS011;35723;51.194;5.112;2023-05-07T13:20:57;20.17;;;9.13;;
49828;SDS011;35723;51.194;5.112;2023-05-07T13:23:24;20.38;;;9.18;;
49828;SDS011;35723;51.194;5.112;2023-05-07T13:25:50;19.42;;;9.25;;
49828;SDS011;35723;51.194;5.112;2023-05-07T13:28:15;18.95;;;9.10;;
49828;SDS011;35723;51.194;5.112;2023-05-07T13:30:41;19.75;;;9.52;;
49828;SDS011;35723;51.194;5.112;2023-05-07T13:33:07;20.55;;;9.00;;
49828;SDS011;35723;51.194;5.112;2023-05-07T13:35:33;20.30;;;9.07;;
49828;SDS011;35723;51.194;5.112;2023-05-07T13:37:59;20.25;;;9.18;;
49828;SDS011;35723;51.194;5.112;2023-05-07T13:40:25;21.55;;;9.70;;
49828;SDS011;35723;51.194;5.112;2023-05-07T13:42:51;21.73;;;8.50;;
49828;SDS011;35723;51.194;5.112;2023-05-07T13:45:19;17.35;;;7.80;;
49828;SDS011;35723;51.194;5.112;2023-05-07T13:47:45;20.20;;;7.55;;
49828;SDS011;35723;51.194;5.112;2023-05-07T13:50:12;19.00;;;7.78;;
49828;SDS011;35723;51.194;5.112;2023-05-07T13:52:41;18.75;;;7.10;;
49828;SDS011;35723;51.194;5.112;2023-05-07T13:55:15;20.85;;;7.85;;
49828;SDS011;35723;51.194;5.112;2023-05-07T13:57:45;19.05;;;7.65;;
49828;SDS011;35723;51.194;5.112;2023-05-07T14:00:11;17.83;;;7.70;;
49828;SDS011;35723;51.194;5.112;2023-05-07T14:02:38;18.45;;;8.32;;
49828;SDS011;35723;51.194;5.112;2023-05-07T14:05:05;18.98;;;7.57;;
49828;SDS011;35723;51.194;5.112;2023-05-07T14:07:31;17.55;;;7.43;;
49828;SDS011;35723;51.194;5.112;2023-05-07T14:09:57;19.88;;;7.78;;
49828;SDS011;35723;51.194;5.112;2023-05-07T14:12:23;20.80;;;7.93;;
49828;SDS011;35723;51.194;5.112;2023-05-07T14:14:48;18.50;;;7.90;;
49828;SDS011;35723;51.194;5.112;2023-05-07T14:17:15;17.10;;;7.97;;
49828;SDS011;35723;51.194;5.112;2023-05-07T14:19:42;18.33;;;8.50;;
49828;SDS011;35723;51.194;5.112;2023-05-07T14:22:08;18.27;;;8.65;;
49828;SDS011;35723;51.194;5.112;2023-05-07T14:24:33;21.52;;;9.07;;
49828;SDS011;35723;51.194;5.112;2023-05-07T14:26:59;17.27;;;8.27;;
49828;SDS011;35723;51.194;5.112;2023-05-07T14:29:25;21.77;;;8.20;;
49828;SDS011;35723;51.194;5.112;2023-05-07T14:31:50;18.20;;;7.70;;
49828;SDS011;35723;51.194;5.112;2023-05-07T14:34:16;18.92;;;7.72;;
49828;SDS011;35723;51.194;5.112;2023-05-07T14:36:42;15.25;;;6.95;;
49828;SDS011;35723;51.194;5.112;2023-05-07T14:39:08;20.08;;;7.40;;
49828;SDS011;35723;51.194;5.112;2023-05-07T14:41:34;18.65;;;6.82;;
49828;SDS011;35723;51.194;5.112;2023-05-07T14:44:00;16.30;;;7.22;;
49828;SDS011;35723;51.194;5.112;2023-05-07T14:46:26;16.10;;;7.18;;
49828;SDS011;35723;51.194;5.112;2023-05-07T14:48:52;15.25;;;6.57;;
49828;SDS011;35723;51.194;5.112;2023-05-07T14:51:18;14.30;;;6.20;;